createdAt,value
2018-10-01T00:02:02.418Z,2.97
2018-10-01T00:04:32.191Z,2.86
2018-10-01T00:07:02.034Z,2.82
2018-10-01T00:09:32.012Z,2.81
2018-10-01T00:12:01.993Z,2.82
2018-10-01T00:14:31.896Z,2.82
2018-10-01T00:17:01.787Z,2.82
2018-10-01T00:19:36.579Z,2.89
2018-10-01T00:22:11.834Z,2.94
2018-10-01T00:24:41.519Z,2.99
2018-10-01T00:27:11.400Z,2.91
2018-10-01T00:29:41.122Z,2.87
2018-10-01T00:32:11.055Z,2.83
2018-10-01T00:34:40.795Z,2.80
2018-10-01T00:37:10.561Z,2.76
2018-10-01T00:39:40.296Z,2.73
2018-10-01T00:42:10.111Z,2.72
2018-10-01T00:44:39.840Z,2.71
2018-10-01T00:47:10.296Z,2.69
2018-10-01T00:49:40.007Z,2.70
2018-10-01T00:52:10.081Z,2.61
2018-10-01T00:54:39.949Z,2.61
2018-10-01T00:57:11.072Z,2.61
2018-10-01T00:59:40.835Z,2.64
2018-10-01T01:02:10.761Z,2.63
2018-10-01T01:04:40.463Z,2.62
2018-10-01T01:07:10.981Z,2.61
2018-10-01T01:09:40.971Z,2.56
2018-10-01T01:12:10.732Z,2.59
2018-10-01T01:14:40.502Z,2.65
2018-10-01T01:17:10.575Z,2.65
2018-10-01T01:19:40.342Z,2.67
2018-10-01T01:22:10.088Z,2.69
2018-10-01T01:24:39.801Z,2.72
2018-10-01T01:27:09.631Z,2.72
2018-10-01T01:29:39.360Z,2.72
2018-10-01T01:32:09.146Z,2.82
2018-10-01T01:34:39.530Z,2.84
2018-10-01T01:37:09.399Z,2.86
2018-10-01T01:39:39.087Z,2.81
2018-10-01T01:42:09.455Z,2.78
2018-10-01T01:44:39.320Z,2.76
2018-10-01T01:47:09.174Z,2.74
2018-10-01T01:49:38.822Z,2.72
2018-10-01T01:52:09.142Z,2.71
2018-10-01T01:54:38.899Z,2.63
2018-10-01T01:57:09.614Z,2.57
2018-10-01T01:59:39.360Z,2.59
2018-10-01T02:02:10.244Z,2.61
2018-10-01T02:04:40.167Z,2.61
2018-10-01T02:07:10.862Z,2.62
2018-10-01T02:09:40.657Z,2.56
2018-10-01T02:12:10.397Z,2.46
2018-10-01T02:14:40.507Z,2.47
2018-10-01T02:17:10.313Z,2.49
2018-10-01T02:19:40.016Z,2.52
2018-10-01T02:22:09.816Z,2.45
2018-10-01T02:24:39.538Z,2.39
2018-10-01T02:27:09.314Z,2.35
2018-10-01T02:29:39.060Z,2.31
2018-10-01T02:32:08.462Z,2.29
2018-10-01T02:34:38.248Z,2.25
2018-10-01T02:37:08.059Z,2.23
2018-10-01T02:39:37.753Z,2.22
2018-10-01T02:42:07.548Z,2.23
2018-10-01T02:44:37.354Z,2.28
2018-10-01T02:47:07.798Z,2.25
2018-10-01T02:49:37.540Z,2.26
2018-10-01T02:52:12.154Z,2.24
2018-10-01T02:54:41.937Z,2.14
2018-10-01T02:57:11.825Z,2.10
2018-10-01T02:59:41.624Z,2.06
2018-10-01T03:02:11.340Z,2.06
2018-10-01T03:04:41.136Z,2.10
2018-10-01T03:07:10.725Z,2.16
2018-10-01T03:09:40.543Z,2.22
2018-10-01T03:12:10.314Z,2.18
2018-10-01T03:14:40.097Z,2.18
2018-10-01T03:17:09.913Z,2.20
2018-10-01T03:19:39.708Z,2.13
2018-10-01T03:22:09.854Z,2.05
2018-10-01T03:24:40.318Z,2.06
2018-10-01T03:27:10.080Z,2.02
2018-10-01T03:29:40.736Z,1.98
2018-10-01T03:32:10.415Z,1.98
2018-10-01T03:34:40.482Z,1.94
2018-10-01T03:37:10.251Z,1.92
2018-10-01T03:39:40.017Z,1.88
2018-10-01T03:42:09.922Z,1.85
2018-10-01T03:44:39.901Z,1.83
2018-10-01T03:47:09.684Z,1.81
2018-10-01T03:49:39.700Z,1.79
2018-10-01T03:52:09.461Z,1.75
2018-10-01T03:54:39.525Z,1.74
2018-10-01T03:57:09.954Z,1.77
2018-10-01T03:59:40.432Z,1.80
2018-10-01T04:02:10.100Z,1.76
2018-10-01T04:04:40.042Z,1.76
2018-10-01T04:07:10.261Z,1.75
2018-10-01T04:09:40.339Z,1.74
2018-10-01T04:12:10.240Z,1.75
2018-10-01T04:14:40.010Z,1.75
2018-10-01T04:17:09.696Z,1.76
2018-10-01T04:19:39.356Z,1.78
2018-10-01T04:22:09.182Z,1.74
2018-10-01T04:24:38.962Z,1.69
2018-10-01T04:27:08.759Z,1.63
2018-10-01T04:29:39.758Z,1.65
2018-10-01T04:32:09.453Z,1.67
2018-10-01T04:34:39.298Z,1.67
2018-10-01T04:37:09.026Z,1.65
2018-10-01T04:39:39.124Z,1.64
2018-10-01T04:42:09.092Z,1.62
2018-10-01T04:44:39.186Z,1.61
2018-10-01T04:47:09.041Z,1.58
2018-10-01T04:49:39.025Z,1.54
2018-10-01T04:52:08.792Z,1.50
2018-10-01T04:54:38.714Z,1.49
2018-10-01T04:57:08.577Z,1.57
2018-10-01T04:59:38.397Z,1.73
2018-10-01T05:02:09.189Z,1.87
2018-10-01T05:04:39.195Z,1.94
2018-10-01T05:07:08.970Z,1.98
2018-10-01T05:09:38.763Z,2.04
2018-10-01T05:12:08.822Z,2.10
2018-10-01T05:14:38.792Z,2.10
2018-10-01T05:17:08.645Z,2.07
2018-10-01T05:19:38.745Z,2.01
2018-10-01T05:22:08.785Z,1.99
2018-10-01T05:24:39.201Z,2.09
2018-10-01T05:27:09.046Z,2.26
2018-10-01T05:29:39.075Z,2.38
2018-10-01T05:32:08.949Z,2.51
2018-10-01T05:34:39.258Z,2.59
2018-10-01T05:37:08.939Z,2.69
2018-10-01T05:39:38.730Z,2.83
2018-10-01T05:42:08.494Z,2.92
2018-10-01T05:44:38.464Z,3.03
2018-10-01T05:47:08.295Z,3.10
2018-10-01T05:49:38.120Z,3.19
2018-10-01T05:52:07.924Z,3.27
2018-10-01T05:54:38.413Z,3.38
2018-10-01T05:57:08.208Z,3.48
2018-10-01T05:59:38.109Z,3.63
2018-10-01T06:02:08.091Z,3.76
2018-10-01T06:04:38.290Z,3.86
2018-10-01T06:07:08.662Z,3.94
2018-10-01T06:09:38.650Z,4.01
2018-10-01T06:12:08.959Z,4.12
2018-10-01T06:14:38.900Z,4.23
2018-10-01T06:17:08.740Z,4.35
2018-10-01T06:19:38.582Z,4.51
2018-10-01T06:22:08.855Z,4.65
2018-10-01T06:24:39.258Z,4.80
2018-10-01T06:27:09.070Z,4.94
2018-10-01T06:29:38.804Z,5.10
2018-10-01T06:32:08.690Z,5.25
2018-10-01T06:34:38.601Z,5.39
2018-10-01T06:37:08.344Z,5.55
2018-10-01T06:39:38.977Z,5.68
2018-10-01T06:42:08.588Z,5.86
2018-10-01T06:44:39.042Z,6.06
2018-10-01T06:47:08.801Z,6.31
2018-10-01T06:49:38.786Z,6.53
2018-10-01T06:52:09.958Z,6.75
2018-10-01T06:54:39.878Z,6.94
2018-10-01T06:57:09.706Z,7.11
2018-10-01T06:59:39.730Z,7.28
2018-10-01T07:02:09.788Z,7.45
2018-10-01T07:04:39.621Z,7.66
2018-10-01T07:07:09.313Z,7.82
2018-10-01T07:09:39.104Z,7.97
2018-10-01T07:12:08.803Z,8.12
2018-10-01T07:14:38.963Z,8.25
2018-10-01T07:17:08.664Z,8.37
2018-10-01T07:19:38.740Z,8.50
2018-10-01T07:22:08.498Z,8.67
2018-10-01T07:24:38.462Z,8.84
2018-10-01T07:27:08.727Z,8.97
2018-10-01T07:29:38.412Z,9.10
2018-10-01T07:32:08.181Z,9.23
2018-10-01T07:34:38.083Z,9.37
2018-10-01T07:37:08.665Z,9.50
2018-10-01T07:39:38.421Z,9.62
2018-10-01T07:42:08.834Z,9.66
2018-10-01T07:44:38.937Z,9.80
2018-10-01T07:47:08.685Z,9.99
2018-10-01T07:49:38.746Z,10.23
2018-10-01T07:52:08.820Z,10.74
2018-10-01T07:54:38.861Z,11.24
2018-10-01T07:57:08.321Z,11.62
2018-10-01T07:59:38.483Z,11.88
2018-10-01T08:02:08.359Z,12.07
2018-10-01T08:04:38.035Z,12.49
2018-10-01T08:07:07.750Z,12.88
2018-10-01T08:09:37.774Z,13.20
2018-10-01T08:12:07.544Z,13.56
2018-10-01T08:14:37.373Z,13.81
2018-10-01T08:17:07.136Z,14.00
2018-10-01T08:19:37.137Z,14.17
2018-10-01T08:22:06.909Z,14.37
2018-10-01T08:24:36.944Z,14.60
2018-10-01T08:27:06.738Z,14.81
2018-10-01T08:29:36.752Z,14.89
2018-10-01T08:32:06.602Z,14.93
2018-10-01T08:34:36.529Z,14.84
2018-10-01T08:37:06.231Z,14.86
2018-10-01T08:39:36.180Z,14.99
2018-10-01T08:42:05.942Z,15.13
2018-10-01T08:44:36.109Z,15.29
2018-10-01T08:47:06.152Z,15.34
2018-10-01T08:50:11.512Z,15.42
2018-10-01T08:52:45.139Z,15.49
2018-10-01T08:55:15.533Z,15.43
2018-10-01T08:57:45.456Z,15.66
2018-10-01T09:00:15.259Z,15.83
2018-10-01T09:02:45.258Z,15.92
2018-10-01T09:05:15.134Z,16.02
2018-10-01T09:07:44.830Z,16.26
2018-10-01T09:10:14.834Z,16.52
2018-10-01T09:12:44.479Z,16.94
2018-10-01T09:15:14.424Z,17.08
2018-10-01T09:17:44.179Z,17.20
2018-10-01T09:20:14.657Z,17.13
2018-10-01T09:22:44.324Z,16.80
2018-10-01T09:25:14.410Z,16.77
2018-10-01T09:27:44.239Z,17.09
2018-10-01T09:30:13.949Z,17.24
2018-10-01T09:32:43.513Z,17.24
2018-10-01T09:35:13.743Z,17.22
2018-10-01T09:37:43.542Z,17.43
2018-10-01T09:40:13.384Z,17.57
2018-10-01T09:42:43.021Z,17.87
2018-10-01T09:45:12.848Z,18.01
2018-10-01T09:47:42.566Z,17.80
2018-10-01T09:50:12.744Z,18.16
2018-10-01T09:52:42.499Z,18.41
2018-10-01T09:55:12.485Z,18.01
2018-10-01T09:57:42.261Z,17.95
2018-10-01T10:00:12.939Z,18.75
2018-10-01T10:02:42.759Z,18.92
2018-10-01T10:05:12.498Z,18.92
2018-10-01T10:07:42.238Z,19.33
2018-10-01T10:10:11.452Z,19.07
2018-10-01T10:12:41.102Z,19.43
2018-10-01T10:15:11.363Z,19.38
2018-10-01T10:17:41.192Z,19.80
2018-10-01T10:20:11.471Z,20.11
2018-10-01T10:22:41.450Z,20.51
2018-10-01T10:25:11.360Z,20.53
2018-10-01T10:27:41.179Z,20.31
2018-10-01T10:30:11.734Z,19.94
2018-10-01T10:32:41.526Z,19.57
2018-10-01T10:35:11.377Z,19.06
2018-10-01T10:37:41.182Z,19.03
2018-10-01T10:40:10.959Z,18.85
2018-10-01T10:42:40.829Z,19.10
2018-10-01T10:45:10.754Z,19.10
2018-10-01T10:47:40.628Z,19.17
2018-10-01T10:50:11.139Z,19.09
2018-10-01T10:52:41.274Z,18.83
2018-10-01T10:55:11.197Z,18.75
2018-10-01T10:57:41.035Z,18.89
2018-10-01T11:00:11.036Z,18.95
2018-10-01T11:02:40.905Z,19.02
2018-10-01T11:05:10.900Z,19.16
2018-10-01T11:07:40.671Z,19.04
2018-10-01T11:10:10.414Z,18.74
2018-10-01T11:12:40.174Z,18.79
2018-10-01T11:15:10.791Z,18.70
2018-10-01T11:17:40.281Z,18.75
2018-10-01T11:20:10.772Z,18.37
2018-10-01T11:22:40.660Z,18.41
2018-10-01T11:25:10.653Z,18.43
2018-10-01T11:27:40.551Z,18.18
2018-10-01T11:30:10.384Z,18.17
2018-10-01T11:32:40.069Z,18.15
2018-10-01T11:35:11.116Z,18.25
2018-10-01T11:37:40.964Z,18.57
2018-10-01T11:40:12.347Z,18.65
2018-10-01T11:42:42.105Z,18.61
2018-10-01T11:45:13.505Z,18.52
2018-10-01T11:47:43.178Z,18.40
2018-10-01T11:50:13.947Z,18.67
2018-10-01T11:52:43.724Z,18.93
2018-10-01T11:55:13.853Z,19.18
2018-10-01T11:57:43.982Z,19.30
2018-10-01T12:00:14.082Z,19.36
2018-10-01T12:02:43.975Z,19.63
2018-10-01T12:05:13.748Z,19.73
2018-10-01T12:07:43.597Z,19.44
2018-10-01T12:10:13.617Z,19.13
2018-10-01T12:12:43.644Z,19.28
2018-10-01T12:15:13.469Z,19.34
2018-10-01T12:17:44.239Z,19.29
2018-10-01T12:20:13.943Z,19.37
2018-10-01T12:22:44.815Z,19.72
2018-10-01T12:25:14.736Z,20.25
2018-10-01T12:27:44.592Z,20.78
2018-10-01T12:30:14.341Z,21.06
2018-10-01T12:32:44.725Z,20.89
2018-10-01T12:35:14.526Z,20.89
2018-10-01T12:37:44.502Z,20.27
2018-10-01T12:40:14.227Z,19.96
2018-10-01T12:42:44.164Z,19.52
2018-10-01T12:45:13.952Z,19.13
2018-10-01T12:47:43.764Z,19.04
2018-10-01T12:50:13.613Z,18.91
2018-10-01T12:52:43.385Z,18.76
2018-10-01T12:55:13.118Z,18.58
2018-10-01T12:57:43.395Z,18.40
2018-10-01T13:00:13.334Z,18.23
2018-10-01T13:02:43.064Z,18.22
2018-10-01T13:05:12.980Z,18.12
2018-10-01T13:07:42.916Z,18.15
2018-10-01T13:10:12.750Z,18.09
2018-10-01T13:12:42.807Z,18.24
2018-10-01T13:15:12.719Z,18.24
2018-10-01T13:17:42.794Z,18.05
2018-10-01T13:20:12.753Z,18.11
2018-10-01T13:22:42.629Z,18.22
2018-10-01T13:25:12.559Z,18.29
2018-10-01T13:27:42.418Z,18.26
2018-10-01T13:30:12.267Z,18.28
2018-10-01T13:32:42.473Z,18.05
2018-10-01T13:35:12.461Z,18.08
2018-10-01T13:37:42.233Z,18.13
2018-10-01T13:40:12.236Z,18.29
2018-10-01T13:42:42.167Z,18.39
2018-10-01T13:45:11.823Z,18.60
2018-10-01T13:47:41.707Z,18.40
2018-10-01T13:50:11.627Z,18.43
2018-10-01T13:52:41.528Z,18.35
2018-10-01T13:55:11.325Z,18.11
2018-10-01T13:57:41.456Z,18.10
2018-10-01T14:00:11.407Z,18.12
2018-10-01T14:02:41.243Z,17.98
2018-10-01T14:05:11.206Z,17.70
2018-10-01T14:07:41.171Z,17.66
2018-10-01T14:10:11.150Z,17.68
2018-10-01T14:12:41.124Z,17.67
2018-10-01T14:15:10.884Z,17.68
2018-10-01T14:17:40.964Z,17.57
2018-10-01T14:20:11.003Z,17.53
2018-10-01T14:22:40.904Z,17.48
2018-10-01T14:25:10.696Z,17.28
2018-10-01T14:27:40.424Z,17.18
2018-10-01T14:30:10.252Z,17.12
2018-10-01T14:32:40.146Z,17.01
2018-10-01T14:35:10.006Z,16.86
2018-10-01T14:37:39.945Z,16.87
2018-10-01T14:40:09.866Z,16.86
2018-10-01T14:42:39.748Z,16.85
2018-10-01T14:45:11.006Z,16.77
2018-10-01T14:47:40.968Z,16.65
2018-10-01T14:50:10.755Z,16.59
2018-10-01T14:52:40.587Z,16.54
2018-10-01T14:55:10.406Z,16.46
2018-10-01T14:57:40.346Z,16.25
2018-10-01T15:00:10.260Z,16.12
2018-10-01T15:02:40.048Z,16.01
2018-10-01T15:05:09.936Z,15.88
2018-10-01T15:07:39.767Z,15.83
2018-10-01T15:10:09.467Z,15.69
2018-10-01T15:12:39.330Z,15.54
2018-10-01T15:15:09.308Z,15.41
2018-10-01T15:17:39.146Z,15.30
2018-10-01T15:20:08.867Z,15.13
2018-10-01T15:22:38.926Z,15.05
2018-10-01T15:25:08.987Z,14.95
2018-10-01T15:27:38.813Z,14.82
2018-10-01T15:30:09.233Z,14.64
2018-10-01T15:32:49.126Z,14.49
2018-10-01T15:35:23.102Z,14.36
2018-10-01T15:38:11.405Z,14.24
2018-10-01T15:40:59.356Z,14.08
2018-10-01T15:43:29.435Z,13.93
2018-10-01T15:45:59.306Z,13.81
2018-10-01T15:48:30.213Z,13.69
2018-10-01T15:50:59.870Z,13.58
2018-10-01T15:53:29.615Z,13.47
2018-10-01T15:55:59.652Z,13.37
2018-10-01T15:58:30.364Z,13.27
2018-10-01T16:01:01.318Z,13.15
2018-10-01T16:03:31.218Z,13.01
2018-10-01T16:06:01.129Z,12.91
2018-10-01T16:08:31.428Z,12.84
2018-10-01T16:11:01.194Z,12.82
2018-10-01T16:13:31.589Z,12.78
2018-10-01T16:16:01.975Z,12.72
2018-10-01T16:18:31.795Z,12.67
2018-10-01T16:21:01.435Z,12.63
2018-10-01T16:23:31.235Z,12.59
2018-10-01T16:26:00.776Z,12.54
2018-10-01T16:28:30.504Z,12.47
2018-10-01T16:31:00.108Z,12.43
2018-10-01T16:33:29.827Z,12.38
2018-10-01T16:35:59.395Z,12.34
2018-10-01T16:38:29.147Z,12.32
2018-10-01T16:40:58.725Z,12.29
2018-10-01T16:43:28.532Z,12.28
2018-10-01T16:45:58.308Z,12.28
2018-10-01T16:48:28.892Z,12.23
2018-10-01T16:50:58.448Z,12.19
2018-10-01T16:53:43.846Z,12.17
2018-10-01T16:56:13.390Z,12.17
2018-10-01T16:58:43.073Z,12.16
2018-10-01T17:01:12.734Z,12.13
2018-10-01T17:03:42.524Z,12.11
2018-10-01T17:06:12.189Z,12.09
2018-10-01T17:08:42.024Z,12.06
2018-10-01T17:11:11.805Z,12.05
2018-10-01T17:13:41.733Z,12.01
2018-10-01T17:16:11.370Z,11.96
2018-10-01T17:18:41.071Z,11.93
2018-10-01T17:21:10.796Z,11.91
2018-10-01T17:23:41.345Z,11.89
2018-10-01T17:26:11.258Z,11.86
2018-10-01T17:28:41.284Z,11.86
2018-10-01T17:31:11.060Z,11.87
2018-10-01T17:33:41.020Z,11.88
2018-10-01T17:36:10.511Z,11.88
2018-10-01T17:38:40.527Z,11.86
2018-10-01T17:41:10.099Z,11.84
2018-10-01T17:43:39.968Z,11.83
2018-10-01T17:46:09.657Z,11.82
2018-10-01T17:48:39.271Z,11.79
2018-10-01T17:51:11.951Z,11.77
2018-10-01T17:53:42.456Z,11.76
2018-10-01T17:56:13.119Z,11.75
2018-10-01T17:58:43.480Z,11.74
2018-10-01T18:01:13.176Z,11.75
2018-10-01T18:03:43.051Z,11.76
2018-10-01T18:06:12.772Z,11.73
2018-10-01T18:08:42.931Z,11.71
2018-10-01T18:11:12.878Z,11.68
2018-10-01T18:13:42.999Z,11.66
2018-10-01T18:16:18.745Z,11.63
2018-10-01T18:18:48.566Z,11.64
2018-10-01T18:21:18.192Z,11.62
2018-10-01T18:24:21.249Z,11.60
2018-10-01T18:27:04.980Z,11.57
2018-10-01T18:29:48.976Z,11.56
2018-10-01T18:32:32.683Z,11.55
2018-10-01T18:35:19.612Z,11.54
2018-10-01T18:38:01.471Z,11.55
2018-10-01T18:40:54.057Z,11.52
2018-10-01T18:43:33.663Z,11.52
2018-10-01T18:46:21.569Z,11.52
2018-10-01T18:49:09.141Z,11.49
2018-10-01T18:51:53.367Z,11.47
2018-10-01T18:54:39.412Z,11.45
2018-10-01T18:57:13.276Z,11.42
2018-10-01T19:00:02.088Z,11.43
2018-10-01T19:02:44.093Z,11.42
2018-10-01T19:05:26.143Z,11.40
2018-10-01T19:08:08.697Z,11.37
2018-10-01T19:10:54.544Z,11.34
2018-10-01T19:13:44.362Z,11.32
2018-10-01T19:16:32.453Z,11.30
2018-10-01T19:19:20.886Z,11.26
2018-10-01T19:21:55.838Z,11.24
2018-10-01T19:24:45.704Z,11.22
2018-10-01T19:27:17.630Z,11.22
2018-10-01T19:30:04.276Z,11.22
2018-10-01T19:32:50.874Z,11.19
2018-10-01T19:35:33.996Z,11.17
2018-10-01T19:38:21.726Z,11.15
2018-10-01T19:40:56.129Z,11.15
2018-10-01T19:43:26.443Z,11.14
2018-10-01T19:46:08.920Z,11.14
2018-10-01T19:48:52.412Z,11.15
2018-10-01T19:51:23.067Z,11.11
2018-10-01T19:54:06.415Z,11.10
2018-10-01T19:56:38.347Z,11.10
2018-10-01T19:59:12.167Z,11.08
2018-10-01T20:01:42.296Z,11.06
2018-10-01T20:04:12.701Z,11.00
2018-10-01T20:06:48.409Z,11.03
2018-10-01T20:09:22.796Z,11.03
2018-10-01T20:11:53.706Z,10.99
2018-10-01T20:14:35.133Z,11.01
2018-10-01T20:17:06.437Z,10.96
2018-10-01T20:19:50.526Z,10.99
2018-10-01T20:22:21.212Z,11.00
2018-10-01T20:24:56.738Z,11.00
2018-10-01T20:27:30.584Z,10.95
2018-10-01T20:30:02.573Z,10.97
2018-10-01T20:32:38.955Z,10.96
2018-10-01T20:35:25.883Z,10.97
2018-10-01T20:38:12.852Z,10.96
2018-10-01T20:41:01.819Z,10.96
2018-10-01T20:43:45.342Z,10.95
2018-10-01T20:46:26.613Z,10.94
2018-10-01T20:49:01.987Z,10.93
2018-10-01T20:51:48.150Z,10.90
2018-10-01T20:54:32.487Z,10.87
2018-10-01T20:57:16.245Z,10.86
2018-10-01T20:59:51.238Z,10.84
2018-10-01T21:02:21.035Z,10.85
2018-10-01T21:05:01.595Z,10.81
2018-10-01T21:07:46.672Z,10.80
2018-10-01T21:10:35.367Z,10.76
2018-10-01T21:13:17.215Z,10.72
2018-10-01T21:15:59.915Z,10.71
2018-10-01T21:18:43.819Z,10.70
2018-10-01T21:21:24.153Z,10.68
2018-10-01T21:24:12.233Z,10.64
2018-10-01T21:26:55.630Z,10.63
2018-10-01T21:29:35.159Z,10.60
2018-10-01T21:32:06.895Z,10.58
2018-10-01T21:34:50.055Z,10.57
2018-10-01T21:37:20.474Z,10.56
2018-10-01T21:40:11.692Z,10.54
2018-10-01T21:42:59.672Z,10.52
2018-10-01T21:45:37.265Z,10.52
2018-10-01T21:48:08.922Z,10.50
2018-10-01T21:50:40.492Z,10.49
2018-10-01T21:53:10.063Z,10.47
2018-10-01T21:55:40.961Z,10.46
2018-10-01T21:58:11.203Z,10.45
2018-10-01T22:00:47.394Z,10.42
2018-10-01T22:03:17.657Z,10.41
2018-10-01T22:05:47.362Z,10.38
2018-10-01T22:08:17.221Z,10.37
2018-10-01T22:10:47.079Z,10.34
2018-10-01T22:13:28.653Z,10.34
2018-10-01T22:16:16.801Z,10.27
2018-10-01T22:18:49.841Z,10.27
2018-10-01T22:21:19.831Z,10.23
2018-10-01T22:23:49.693Z,10.24
2018-10-01T22:26:24.775Z,10.24
2018-10-01T22:28:54.766Z,10.24
2018-10-01T22:31:24.445Z,10.21
2018-10-01T22:33:54.405Z,10.20
2018-10-01T22:36:36.831Z,10.20
2018-10-01T22:39:09.062Z,10.20
2018-10-01T22:41:39.255Z,10.16
2018-10-01T22:44:09.247Z,10.15
2018-10-01T22:46:39.401Z,10.14
2018-10-01T22:49:11.926Z,10.11
2018-10-01T22:51:41.545Z,10.10
2018-10-01T22:54:12.076Z,10.09
2018-10-01T22:56:41.855Z,10.08
2018-10-01T22:59:12.645Z,10.07
2018-10-01T23:01:42.233Z,10.08
2018-10-01T23:04:13.053Z,10.08
2018-10-01T23:06:42.977Z,10.08
2018-10-01T23:09:13.881Z,10.07
2018-10-01T23:11:43.700Z,10.05
2018-10-01T23:14:14.581Z,10.05
2018-10-01T23:16:44.506Z,10.04
2018-10-01T23:19:14.250Z,10.04
2018-10-01T23:21:44.304Z,10.01
2018-10-01T23:24:13.867Z,10.00
2018-10-01T23:26:43.702Z,10.00
2018-10-01T23:29:13.501Z,9.98
2018-10-01T23:31:43.569Z,9.98
2018-10-01T23:34:13.283Z,10.00
2018-10-01T23:36:43.240Z,9.97
2018-10-01T23:39:13.059Z,9.98
2018-10-01T23:41:43.361Z,9.96
2018-10-01T23:44:13.465Z,9.95
2018-10-01T23:46:44.218Z,9.97
2018-10-01T23:49:14.254Z,9.96
2018-10-01T23:51:44.484Z,9.93
2018-10-01T23:54:14.338Z,9.94
2018-10-01T23:56:44.469Z,9.95
2018-10-01T23:59:14.716Z,9.93
